createdAt,value
2023-05-20T00:04:19.991Z,23.70
2023-05-20T00:09:21.782Z,28.60
2023-05-20T00:14:23.537Z,29.00
2023-05-20T00:19:25.696Z,23.10
2023-05-20T00:24:27.928Z,24.10
2023-05-20T00:29:29.634Z,21.30
2023-05-20T00:34:31.686Z,20.30
2023-05-20T00:39:33.449Z,22.30
2023-05-20T00:44:35.189Z,34.00
2023-05-20T00:49:36.927Z,30.80
2023-05-20T00:54:41.098Z,24.90
2023-05-20T00:59:44.750Z,20.20
2023-05-20T01:04:47.430Z,28.40
2023-05-20T01:09:49.533Z,34.20
2023-05-20T01:15:00.372Z,32.40
2023-05-20T01:20:04.186Z,33.40
2023-05-20T01:25:06.449Z,27.60
2023-05-20T01:30:08.963Z,30.00
2023-05-20T01:35:15.375Z,30.00
2023-05-20T01:40:18.958Z,34.30
2023-05-20T01:45:21.369Z,30.00
2023-05-20T01:50:23.194Z,27.60
2023-05-20T01:55:24.939Z,23.20
2023-05-20T02:00:26.856Z,28.60
2023-05-20T02:05:28.617Z,26.50
2023-05-20T02:10:30.900Z,26.30
2023-05-20T02:15:32.821Z,21.50
2023-05-20T02:20:38.287Z,28.00
2023-05-20T02:25:41.028Z,23.70
2023-05-20T02:30:45.562Z,23.70
2023-05-20T02:35:47.283Z,28.30
2023-05-20T02:40:49.268Z,22.30
2023-05-20T02:45:51.677Z,24.80
2023-05-20T02:50:53.394Z,29.30
2023-05-20T02:55:55.632Z,23.80
2023-05-20T03:00:57.838Z,25.30
2023-05-20T03:06:00.686Z,27.30
2023-05-20T03:11:03.385Z,30.50
2023-05-20T03:16:06.819Z,22.70
2023-05-20T03:21:09.070Z,34.70
2023-05-20T03:26:11.334Z,28.20
2023-05-20T03:31:13.363Z,21.60
2023-05-20T03:36:15.634Z,21.90
2023-05-20T03:41:17.549Z,26.20
2023-05-20T03:46:19.954Z,22.90
2023-05-20T03:51:21.892Z,26.50
2023-05-20T03:56:24.752Z,27.70
2023-05-20T04:01:26.504Z,27.90
2023-05-20T04:06:28.416Z,16.20
2023-05-20T04:11:31.051Z,20.70
2023-05-20T04:16:32.931Z,25.30
2023-05-20T04:21:34.795Z,20.40
2023-05-20T04:26:37.412Z,14.50
2023-05-20T04:31:39.324Z,13.30
2023-05-20T04:36:43.631Z,13.80
2023-05-20T04:41:45.810Z,11.10
2023-05-20T04:46:47.593Z,11.40
2023-05-20T04:51:50.128Z,12.90
2023-05-20T04:56:53.686Z,12.30
2023-05-20T05:01:56.057Z,12.90
2023-05-20T05:06:58.175Z,8.60
2023-05-20T05:11:59.961Z,8.20
2023-05-20T05:17:01.796Z,8.70
2023-05-20T05:22:04.050Z,9.90
2023-05-20T05:27:06.112Z,7.90
2023-05-20T05:32:08.269Z,9.40
2023-05-20T05:37:10.151Z,11.60
2023-05-20T05:42:12.633Z,9.70
2023-05-20T05:47:15.134Z,14.40
2023-05-20T05:52:17.231Z,10.70
2023-05-20T05:57:19.118Z,11.40
2023-05-20T06:02:22.649Z,11.00
2023-05-20T06:07:24.777Z,12.50
2023-05-20T06:12:27.035Z,10.20
2023-05-20T06:17:28.901Z,12.40
2023-05-20T06:22:31.002Z,15.10
2023-05-20T06:27:32.782Z,14.40
2023-05-20T06:32:34.825Z,12.50
2023-05-20T06:37:37.099Z,11.80
2023-05-20T06:42:39.275Z,14.70
2023-05-20T06:47:41.196Z,11.80
2023-05-20T06:52:43.876Z,10.30
2023-05-20T06:57:46.366Z,7.80
2023-05-20T07:02:49.244Z,10.10
2023-05-20T07:07:51.309Z,11.90
2023-05-20T07:12:53.367Z,13.20
2023-05-20T07:17:55.929Z,14.90
2023-05-20T07:22:57.901Z,11.30
2023-05-20T07:28:07.075Z,11.00
2023-05-20T07:33:09.671Z,11.50
2023-05-20T07:38:12.884Z,13.40
2023-05-20T07:43:16.000Z,10.70
2023-05-20T07:48:18.124Z,10.50
2023-05-20T07:53:20.195Z,10.00
2023-05-20T07:58:22.770Z,10.40
2023-05-20T08:03:26.971Z,11.50
2023-05-20T08:08:55.041Z,14.90
2023-05-20T08:14:02.230Z,11.10
2023-05-20T08:19:06.243Z,12.80
2023-05-20T08:24:08.292Z,12.40
2023-05-20T08:29:10.714Z,9.40
2023-05-20T08:34:12.598Z,11.20
2023-05-20T08:39:15.291Z,12.10
2023-05-20T08:44:19.270Z,11.80
2023-05-20T08:49:22.040Z,12.40
2023-05-20T08:54:26.754Z,10.60
2023-05-20T08:59:28.906Z,9.50
2023-05-20T09:04:30.917Z,11.30
2023-05-20T09:09:34.328Z,12.30
2023-05-20T09:14:36.048Z,11.70
2023-05-20T09:19:37.892Z,12.90
2023-05-20T09:24:41.309Z,12.00
2023-05-20T09:29:43.800Z,10.50
2023-05-20T09:34:47.525Z,11.30
2023-05-20T09:40:00.384Z,12.00
2023-05-20T09:45:04.346Z,11.00
2023-05-20T09:50:10.337Z,11.40
2023-05-20T09:55:12.349Z,13.90
2023-05-20T10:00:17.603Z,14.50
2023-05-20T10:05:27.653Z,14.00
2023-05-20T10:10:48.498Z,14.30
2023-05-20T10:16:24.565Z,16.00
2023-05-20T10:21:26.610Z,15.00
2023-05-20T10:26:36.668Z,15.00
2023-05-20T10:31:45.736Z,15.00
2023-05-20T10:36:58.648Z,17.40
2023-05-20T10:42:07.574Z,18.90
2023-05-20T10:52:27.995Z,14.60
2023-05-20T10:57:29.798Z,14.90
2023-05-20T11:02:33.135Z,16.00
2023-05-20T11:07:34.896Z,13.90
2023-05-20T11:12:36.667Z,15.20
2023-05-20T11:17:38.487Z,19.50
2023-05-20T11:22:40.514Z,15.00
2023-05-20T11:27:43.398Z,17.30
2023-05-20T11:32:56.389Z,15.50
2023-05-20T11:38:07.792Z,16.00
2023-05-20T11:43:11.579Z,13.80
2023-05-20T11:48:15.641Z,17.50
2023-05-20T11:53:21.091Z,17.60
2023-05-20T11:58:29.878Z,15.20
2023-05-20T12:03:33.120Z,16.40
2023-05-20T12:08:35.324Z,17.60
2023-05-20T12:13:37.544Z,20.60
2023-05-20T12:18:39.331Z,20.10
2023-05-20T12:23:41.422Z,22.00
2023-05-20T12:28:43.470Z,21.00
2023-05-20T12:33:45.767Z,16.00
2023-05-20T12:38:48.169Z,21.00
2023-05-20T12:43:49.900Z,23.20
2023-05-20T12:48:51.678Z,23.00
2023-05-20T12:53:53.423Z,22.10
2023-05-20T12:58:55.214Z,19.70
2023-05-20T13:03:57.076Z,25.90
2023-05-20T13:08:58.781Z,19.70
2023-05-20T13:14:00.684Z,22.60
2023-05-20T13:19:02.448Z,24.10
2023-05-20T13:24:04.529Z,23.60
2023-05-20T13:29:06.243Z,24.10
2023-05-20T13:34:08.298Z,20.70
2023-05-20T13:39:10.813Z,25.20
2023-05-20T13:49:14.544Z,16.90
2023-05-20T13:54:16.421Z,15.70
2023-05-20T13:59:18.405Z,20.70
2023-05-20T14:04:20.161Z,18.50
2023-05-20T14:09:21.963Z,16.80
2023-05-20T14:14:23.684Z,19.40
2023-05-20T14:19:26.988Z,16.50
2023-05-20T14:24:29.345Z,15.10
2023-05-20T14:29:31.356Z,16.80
2023-05-20T14:34:33.148Z,15.00
2023-05-20T14:39:38.457Z,17.20
2023-05-20T14:44:40.395Z,15.90
2023-05-20T14:49:44.621Z,15.90
2023-05-20T14:54:46.417Z,17.30
2023-05-20T14:59:50.226Z,19.40
2023-05-20T15:04:52.116Z,15.90
2023-05-20T15:09:53.826Z,13.90
2023-05-20T15:14:55.804Z,12.90
2023-05-20T15:19:57.536Z,21.30
2023-05-20T15:24:59.470Z,16.00
2023-05-20T15:30:01.369Z,14.10
2023-05-20T15:35:04.316Z,16.50
2023-05-20T15:40:07.284Z,17.30
2023-05-20T15:45:10.071Z,16.00
2023-05-20T15:50:12.312Z,15.80
2023-05-20T15:55:14.363Z,16.50
2023-05-20T16:00:19.370Z,17.10
2023-05-20T16:05:24.666Z,15.30
2023-05-20T16:10:32.423Z,15.40
2023-05-20T16:15:36.697Z,15.50
2023-05-20T16:20:38.486Z,20.30
2023-05-20T16:25:40.231Z,15.30
2023-05-20T16:30:41.935Z,13.10
2023-05-20T16:35:43.835Z,12.50
2023-05-20T16:40:45.592Z,13.50
2023-05-20T16:45:47.341Z,16.60
2023-05-20T16:50:49.179Z,15.10
2023-05-20T16:55:51.928Z,16.10
2023-05-20T17:00:55.291Z,14.40
2023-05-20T17:05:57.229Z,15.10
2023-05-20T17:11:00.229Z,14.30
2023-05-20T17:16:02.317Z,14.80
2023-05-20T17:21:04.199Z,13.50
2023-05-20T17:26:06.235Z,14.60
2023-05-20T17:31:09.730Z,16.90
2023-05-20T17:36:13.795Z,18.60
2023-05-20T17:41:17.862Z,20.40
2023-05-20T17:46:19.669Z,16.80
2023-05-20T17:51:21.530Z,19.50
2023-05-20T17:56:23.429Z,18.70
2023-05-20T18:01:25.127Z,14.80
2023-05-20T18:06:27.003Z,17.80
2023-05-20T18:11:28.809Z,20.00
2023-05-20T18:16:31.124Z,16.80
2023-05-20T18:21:33.050Z,16.90
2023-05-20T18:26:35.018Z,21.60
2023-05-20T18:31:37.124Z,19.00
2023-05-20T18:36:39.024Z,18.40
2023-05-20T18:46:47.602Z,20.10
2023-05-20T18:51:49.330Z,17.00
2023-05-20T18:56:51.312Z,17.90
2023-05-20T19:01:53.279Z,21.90
2023-05-20T19:06:55.046Z,27.00
2023-05-20T19:11:59.085Z,20.80
2023-05-20T19:17:01.225Z,22.20
2023-05-20T19:22:03.057Z,19.10
2023-05-20T19:27:05.784Z,18.20
2023-05-20T19:32:08.119Z,24.60
2023-05-20T19:37:10.690Z,20.60
2023-05-20T19:42:12.440Z,19.40
2023-05-20T19:47:14.715Z,26.00
2023-05-20T19:52:16.575Z,21.50
2023-05-20T19:57:18.371Z,21.00
2023-05-20T20:02:20.644Z,20.40
2023-05-20T20:07:23.945Z,19.40
2023-05-20T20:12:26.599Z,21.50
2023-05-20T20:17:28.326Z,17.90
2023-05-20T20:22:30.029Z,16.00
2023-05-20T20:27:33.622Z,23.30
2023-05-20T20:32:37.802Z,19.50
2023-05-20T20:37:40.515Z,16.10
2023-05-20T20:42:45.156Z,18.30
2023-05-20T20:47:50.994Z,16.70
2023-05-20T20:52:52.850Z,17.50
2023-05-20T20:57:56.732Z,19.40
2023-05-20T21:02:58.518Z,20.10
2023-05-20T21:08:03.316Z,17.00
2023-05-20T21:13:11.261Z,19.20
2023-05-20T21:18:14.043Z,18.30
2023-05-20T21:23:15.854Z,13.90
2023-05-20T21:28:17.690Z,18.90
2023-05-20T21:33:20.667Z,12.10
2023-05-20T21:38:27.036Z,14.70
2023-05-20T21:43:30.718Z,16.70
2023-05-20T21:48:34.237Z,15.20
2023-05-20T21:53:35.974Z,17.60
2023-05-20T21:58:41.249Z,14.30
2023-05-20T22:03:48.788Z,18.80
2023-05-20T22:08:52.164Z,17.20
2023-05-20T22:13:54.700Z,12.40
2023-05-20T22:18:57.236Z,14.40
2023-05-20T22:23:59.267Z,15.60
2023-05-20T22:29:01.571Z,21.80
2023-05-20T22:34:04.591Z,14.90
2023-05-20T22:39:07.172Z,15.50
2023-05-20T22:44:09.095Z,13.30
2023-05-20T22:49:13.010Z,16.70
2023-05-20T22:54:14.892Z,16.90
2023-05-20T22:59:16.873Z,16.70
2023-05-20T23:04:19.317Z,13.30
2023-05-20T23:09:21.783Z,17.00
2023-05-20T23:14:36.819Z,14.10
2023-05-20T23:19:38.553Z,12.50
2023-05-20T23:24:40.279Z,14.80
2023-05-20T23:29:42.371Z,16.00
2023-05-20T23:34:46.487Z,14.30
2023-05-20T23:39:49.270Z,13.50
2023-05-20T23:44:51.048Z,17.10
2023-05-20T23:50:13.832Z,13.90
2023-05-20T23:55:18.275Z,13.30
